sensor_id;sensor_type;location;lat;lon;timestamp;temperature;humidity
52643;DHT22;38531;53.296;6.614;2023-11-19T00:01:31;11.10;99.90
52643;DHT22;38531;53.296;6.614;2023-11-19T00:03:58;10.70;99.90
52643;DHT22;38531;53.296;6.614;2023-11-19T00:06:23;11.10;99.90
52643;DHT22;38531;53.296;6.614;2023-11-19T00:08:50;10.80;99.90
52643;DHT22;38531;53.296;6.614;2023-11-19T00:11:16;10.90;99.90
52643;DHT22;38531;53.296;6.614;2023-11-19T00:13:42;11.40;99.90
52643;DHT22;38531;53.296;6.614;2023-11-19T00:16:07;11.00;99.90
52643;DHT22;38531;53.296;6.614;2023-11-19T00:18:35;11.10;99.90
52643;DHT22;38531;53.296;6.614;2023-11-19T00:21:01;11.20;99.90
52643;DHT22;38531;53.296;6.614;2023-11-19T00:23:27;11.20;99.90
52643;DHT22;38531;53.296;6.614;2023-11-19T00:25:53;11.20;99.90
52643;DHT22;38531;53.296;6.614;2023-11-19T00:28:18;11.80;99.90
52643;DHT22;38531;53.296;6.614;2023-11-19T00:30:44;11.40;99.90
52643;DHT22;38531;53.296;6.614;2023-11-19T00:33:10;11.40;99.90
52643;DHT22;38531;53.296;6.614;2023-11-19T00:35:35;11.40;99.90
52643;DHT22;38531;53.296;6.614;2023-11-19T00:38:01;11.30;99.90
52643;DHT22;38531;53.296;6.614;2023-11-19T00:40:28;11.40;99.90
52643;DHT22;38531;53.296;6.614;2023-11-19T00:42:53;11.40;99.90
52643;DHT22;38531;53.296;6.614;2023-11-19T00:45:19;11.60;99.90
52643;DHT22;38531;53.296;6.614;2023-11-19T00:47:45;11.40;99.90
52643;DHT22;38531;53.296;6.614;2023-11-19T00:50:10;11.70;99.90
52643;DHT22;38531;53.296;6.614;2023-11-19T00:52:37;11.50;99.90
52643;DHT22;38531;53.296;6.614;2023-11-19T00:55:03;11.50;99.90
52643;DHT22;38531;53.296;6.614;2023-11-19T00:57:29;11.50;99.90
52643;DHT22;38531;53.296;6.614;2023-11-19T00:59:55;11.60;99.90
52643;DHT22;38531;53.296;6.614;2023-11-19T01:02:21;11.60;99.90
52643;DHT22;38531;53.296;6.614;2023-11-19T01:04:46;11.80;99.90
52643;DHT22;38531;53.296;6.614;2023-11-19T01:07:12;11.60;99.90
52643;DHT22;38531;53.296;6.614;2023-11-19T01:09:38;12.20;99.90
52643;DHT22;38531;53.296;6.614;2023-11-19T01:12:04;11.70;99.90
52643;DHT22;38531;53.296;6.614;2023-11-19T01:14:30;11.70;99.90
52643;DHT22;38531;53.296;6.614;2023-11-19T01:16:55;11.70;99.90
52643;DHT22;38531;53.296;6.614;2023-11-19T01:19:21;11.90;99.90
52643;DHT22;38531;53.296;6.614;2023-11-19T01:21:47;11.80;99.90
52643;DHT22;38531;53.296;6.614;2023-11-19T01:24:13;12.10;99.90
52643;DHT22;38531;53.296;6.614;2023-11-19T01:26:39;11.80;99.90
52643;DHT22;38531;53.296;6.614;2023-11-19T01:29:11;11.70;99.90
52643;DHT22;38531;53.296;6.614;2023-11-19T01:31:39;11.80;99.90
52643;DHT22;38531;53.296;6.614;2023-11-19T01:34:05;11.70;99.90
52643;DHT22;38531;53.296;6.614;2023-11-19T01:36:30;11.70;99.90
52643;DHT22;38531;53.296;6.614;2023-11-19T01:38:56;11.70;99.90
52643;DHT22;38531;53.296;6.614;2023-11-19T01:41:21;11.70;99.90
52643;DHT22;38531;53.296;6.614;2023-11-19T01:43:47;11.70;99.90
52643;DHT22;38531;53.296;6.614;2023-11-19T01:46:12;11.70;99.90
52643;DHT22;38531;53.296;6.614;2023-11-19T01:48:44;11.70;99.90
52643;DHT22;38531;53.296;6.614;2023-11-19T01:51:11;11.70;99.90
52643;DHT22;38531;53.296;6.614;2023-11-19T01:53:37;11.70;99.90
52643;DHT22;38531;53.296;6.614;2023-11-19T01:56:04;11.70;99.90
52643;DHT22;38531;53.296;6.614;2023-11-19T01:58:35;11.70;99.90
52643;DHT22;38531;53.296;6.614;2023-11-19T02:01:00;11.70;99.90
52643;DHT22;38531;53.296;6.614;2023-11-19T02:03:29;11.70;99.90
52643;DHT22;38531;53.296;6.614;2023-11-19T02:05:56;11.80;99.90
52643;DHT22;38531;53.296;6.614;2023-11-19T02:08:21;11.70;99.90
52643;DHT22;38531;53.296;6.614;2023-11-19T02:10:47;11.70;99.90
52643;DHT22;38531;53.296;6.614;2023-11-19T02:13:12;11.70;99.90
52643;DHT22;38531;53.296;6.614;2023-11-19T02:15:40;11.70;99.90
52643;DHT22;38531;53.296;6.614;2023-11-19T02:18:19;12.10;99.90
52643;DHT22;38531;53.296;6.614;2023-11-19T02:20:45;11.70;99.90
52643;DHT22;38531;53.296;6.614;2023-11-19T02:23:11;11.70;99.90
52643;DHT22;38531;53.296;6.614;2023-11-19T02:25:36;12.00;99.90
52643;DHT22;38531;53.296;6.614;2023-11-19T02:28:03;12.10;99.90
52643;DHT22;38531;53.296;6.614;2023-11-19T02:30:29;11.70;99.90
52643;DHT22;38531;53.296;6.614;2023-11-19T02:32:55;11.70;99.90
52643;DHT22;38531;53.296;6.614;2023-11-19T02:35:26;12.20;99.90
52643;DHT22;38531;53.296;6.614;2023-11-19T02:37:51;11.70;99.90
52643;DHT22;38531;53.296;6.614;2023-11-19T02:40:17;11.90;99.90
52643;DHT22;38531;53.296;6.614;2023-11-19T02:42:43;11.70;99.90
52643;DHT22;38531;53.296;6.614;2023-11-19T02:45:09;11.90;99.90
52643;DHT22;38531;53.296;6.614;2023-11-19T02:47:42;11.70;99.90
52643;DHT22;38531;53.296;6.614;2023-11-19T02:50:09;11.60;99.90
52643;DHT22;38531;53.296;6.614;2023-11-19T02:52:41;11.60;99.90
52643;DHT22;38531;53.296;6.614;2023-11-19T02:55:06;11.90;99.90
52643;DHT22;38531;53.296;6.614;2023-11-19T02:57:35;11.60;99.90
52643;DHT22;38531;53.296;6.614;2023-11-19T03:00:01;11.60;99.90
52643;DHT22;38531;53.296;6.614;2023-11-19T03:02:31;11.50;99.90
52643;DHT22;38531;53.296;6.614;2023-11-19T03:04:59;11.50;99.90
52643;DHT22;38531;53.296;6.614;2023-11-19T03:07:25;11.50;99.90
52643;DHT22;38531;53.296;6.614;2023-11-19T03:09:50;11.50;99.90
52643;DHT22;38531;53.296;6.614;2023-11-19T03:12:16;11.50;99.90
52643;DHT22;38531;53.296;6.614;2023-11-19T03:14:41;11.40;99.90
52643;DHT22;38531;53.296;6.614;2023-11-19T03:17:07;11.40;99.90
52643;DHT22;38531;53.296;6.614;2023-11-19T03:19:35;11.60;99.90
52643;DHT22;38531;53.296;6.614;2023-11-19T03:22:01;11.50;99.90
52643;DHT22;38531;53.296;6.614;2023-11-19T03:24:26;11.20;99.90
52643;DHT22;38531;53.296;6.614;2023-11-19T03:26:52;11.40;99.90
52643;DHT22;38531;53.296;6.614;2023-11-19T03:29:17;11.30;99.90
52643;DHT22;38531;53.296;6.614;2023-11-19T03:31:43;11.70;99.90
52643;DHT22;38531;53.296;6.614;2023-11-19T03:34:10;11.20;99.90
52643;DHT22;38531;53.296;6.614;2023-11-19T03:36:35;11.20;99.90
52643;DHT22;38531;53.296;6.614;2023-11-19T03:39:01;11.20;99.90
52643;DHT22;38531;53.296;6.614;2023-11-19T03:41:28;11.40;99.90
52643;DHT22;38531;53.296;6.614;2023-11-19T03:43:53;11.30;99.90
52643;DHT22;38531;53.296;6.614;2023-11-19T03:46:19;11.20;99.90
52643;DHT22;38531;53.296;6.614;2023-11-19T03:48:46;11.20;99.90
52643;DHT22;38531;53.296;6.614;2023-11-19T03:51:12;11.30;99.90
52643;DHT22;38531;53.296;6.614;2023-11-19T03:53:43;11.50;99.90
52643;DHT22;38531;53.296;6.614;2023-11-19T03:56:10;11.30;99.90
52643;DHT22;38531;53.296;6.614;2023-11-19T03:58:35;11.30;99.90
52643;DHT22;38531;53.296;6.614;2023-11-19T04:01:01;11.50;99.90
52643;DHT22;38531;53.296;6.614;2023-11-19T04:03:27;11.30;99.90
52643;DHT22;38531;53.296;6.614;2023-11-19T04:05:53;11.40;99.90
52643;DHT22;38531;53.296;6.614;2023-11-19T04:08:19;11.40;99.90
52643;DHT22;38531;53.296;6.614;2023-11-19T04:10:45;11.40;99.90
52643;DHT22;38531;53.296;6.614;2023-11-19T04:13:10;11.30;99.90
52643;DHT22;38531;53.296;6.614;2023-11-19T04:15:36;11.40;99.90
52643;DHT22;38531;53.296;6.614;2023-11-19T04:18:01;11.30;99.90
52643;DHT22;38531;53.296;6.614;2023-11-19T04:20:27;11.30;99.90
52643;DHT22;38531;53.296;6.614;2023-11-19T04:22:53;11.30;99.90
52643;DHT22;38531;53.296;6.614;2023-11-19T04:25:19;11.30;99.90
52643;DHT22;38531;53.296;6.614;2023-11-19T04:27:44;11.30;99.90
52643;DHT22;38531;53.296;6.614;2023-11-19T04:30:10;11.70;99.90
52643;DHT22;38531;53.296;6.614;2023-11-19T04:32:36;11.30;99.90
52643;DHT22;38531;53.296;6.614;2023-11-19T04:35:02;11.20;99.90
52643;DHT22;38531;53.296;6.614;2023-11-19T04:37:28;11.20;99.90
52643;DHT22;38531;53.296;6.614;2023-11-19T04:39:54;11.20;99.90
52643;DHT22;38531;53.296;6.614;2023-11-19T04:42:21;11.30;99.90
52643;DHT22;38531;53.296;6.614;2023-11-19T04:44:47;11.50;99.90
52643;DHT22;38531;53.296;6.614;2023-11-19T04:47:13;11.30;99.90
52643;DHT22;38531;53.296;6.614;2023-11-19T04:49:42;10.90;99.90
52643;DHT22;38531;53.296;6.614;2023-11-19T04:52:10;11.20;99.90
52643;DHT22;38531;53.296;6.614;2023-11-19T04:54:40;11.20;99.90
52643;DHT22;38531;53.296;6.614;2023-11-19T04:57:06;11.20;99.90
52643;DHT22;38531;53.296;6.614;2023-11-19T04:59:33;11.20;99.90
52643;DHT22;38531;53.296;6.614;2023-11-19T05:01:59;11.30;99.90
52643;DHT22;38531;53.296;6.614;2023-11-19T05:04:25;11.20;99.90
52643;DHT22;38531;53.296;6.614;2023-11-19T05:06:51;11.20;99.90
52643;DHT22;38531;53.296;6.614;2023-11-19T05:09:16;11.50;99.90
52643;DHT22;38531;53.296;6.614;2023-11-19T05:11:42;11.20;99.90
52643;DHT22;38531;53.296;6.614;2023-11-19T05:14:08;11.40;99.90
52643;DHT22;38531;53.296;6.614;2023-11-19T05:16:34;11.20;99.90
52643;DHT22;38531;53.296;6.614;2023-11-19T05:19:00;11.20;99.90
52643;DHT22;38531;53.296;6.614;2023-11-19T05:21:26;11.10;99.90
52643;DHT22;38531;53.296;6.614;2023-11-19T05:23:51;11.20;99.90
52643;DHT22;38531;53.296;6.614;2023-11-19T05:26:20;11.10;99.90
52643;DHT22;38531;53.296;6.614;2023-11-19T05:28:46;11.10;99.90
52643;DHT22;38531;53.296;6.614;2023-11-19T05:31:12;11.10;99.90
52643;DHT22;38531;53.296;6.614;2023-11-19T05:33:38;11.10;99.90
52643;DHT22;38531;53.296;6.614;2023-11-19T05:36:04;11.40;99.90
52643;DHT22;38531;53.296;6.614;2023-11-19T05:38:30;11.10;99.90
52643;DHT22;38531;53.296;6.614;2023-11-19T05:40:55;11.20;99.90
52643;DHT22;38531;53.296;6.614;2023-11-19T05:43:21;11.30;99.90
52643;DHT22;38531;53.296;6.614;2023-11-19T05:45:47;11.00;99.90
52643;DHT22;38531;53.296;6.614;2023-11-19T05:48:12;11.10;99.90
52643;DHT22;38531;53.296;6.614;2023-11-19T05:50:38;11.70;99.90
52643;DHT22;38531;53.296;6.614;2023-11-19T05:53:04;11.10;99.90
52643;DHT22;38531;53.296;6.614;2023-11-19T05:55:34;11.10;99.90
52643;DHT22;38531;53.296;6.614;2023-11-19T05:58:01;11.10;99.90
52643;DHT22;38531;53.296;6.614;2023-11-19T06:00:26;11.60;99.90
52643;DHT22;38531;53.296;6.614;2023-11-19T06:02:52;11.40;99.90
52643;DHT22;38531;53.296;6.614;2023-11-19T06:05:18;11.00;99.90
52643;DHT22;38531;53.296;6.614;2023-11-19T06:07:43;11.00;99.90
52643;DHT22;38531;53.296;6.614;2023-11-19T06:10:09;10.90;99.90
52643;DHT22;38531;53.296;6.614;2023-11-19T06:12:35;10.90;99.90
52643;DHT22;38531;53.296;6.614;2023-11-19T06:15:04;11.30;99.90
52643;DHT22;38531;53.296;6.614;2023-11-19T06:17:30;10.90;99.90
52643;DHT22;38531;53.296;6.614;2023-11-19T06:19:55;10.90;99.90
52643;DHT22;38531;53.296;6.614;2023-11-19T06:22:21;10.90;99.90
52643;DHT22;38531;53.296;6.614;2023-11-19T06:24:46;10.80;99.90
52643;DHT22;38531;53.296;6.614;2023-11-19T06:27:13;10.80;99.90
52643;DHT22;38531;53.296;6.614;2023-11-19T06:29:38;10.80;99.90
52643;DHT22;38531;53.296;6.614;2023-11-19T06:32:06;10.80;99.90
52643;DHT22;38531;53.296;6.614;2023-11-19T06:34:33;10.90;99.90
52643;DHT22;38531;53.296;6.614;2023-11-19T06:36:59;10.90;99.90
52643;DHT22;38531;53.296;6.614;2023-11-19T06:39:25;10.80;99.90
52643;DHT22;38531;53.296;6.614;2023-11-19T06:41:51;10.80;99.90
52643;DHT22;38531;53.296;6.614;2023-11-19T06:44:17;11.00;99.90
52643;DHT22;38531;53.296;6.614;2023-11-19T06:46:43;10.80;99.90
52643;DHT22;38531;53.296;6.614;2023-11-19T06:49:08;10.80;99.90
52643;DHT22;38531;53.296;6.614;2023-11-19T06:51:34;11.30;99.90
52643;DHT22;38531;53.296;6.614;2023-11-19T06:53:59;10.90;99.90
52643;DHT22;38531;53.296;6.614;2023-11-19T06:56:25;11.40;99.90
52643;DHT22;38531;53.296;6.614;2023-11-19T06:58:51;10.70;99.90
52643;DHT22;38531;53.296;6.614;2023-11-19T07:01:18;11.10;99.90
52643;DHT22;38531;53.296;6.614;2023-11-19T07:03:46;10.70;99.90
52643;DHT22;38531;53.296;6.614;2023-11-19T07:06:12;10.60;99.90
52643;DHT22;38531;53.296;6.614;2023-11-19T07:08:41;10.70;99.90
52643;DHT22;38531;53.296;6.614;2023-11-19T07:11:07;10.80;99.90
52643;DHT22;38531;53.296;6.614;2023-11-19T07:13:35;10.80;99.90
52643;DHT22;38531;53.296;6.614;2023-11-19T07:16:00;10.60;99.90
52643;DHT22;38531;53.296;6.614;2023-11-19T07:18:26;10.60;99.90
52643;DHT22;38531;53.296;6.614;2023-11-19T07:20:52;10.60;99.90
52643;DHT22;38531;53.296;6.614;2023-11-19T07:23:17;10.60;99.90
52643;DHT22;38531;53.296;6.614;2023-11-19T07:25:43;10.80;99.90
52643;DHT22;38531;53.296;6.614;2023-11-19T07:28:12;10.60;99.90
52643;DHT22;38531;53.296;6.614;2023-11-19T07:30:38;10.50;99.90
52643;DHT22;38531;53.296;6.614;2023-11-19T07:33:04;10.30;99.90
52643;DHT22;38531;53.296;6.614;2023-11-19T07:35:29;10.60;99.90
52643;DHT22;38531;53.296;6.614;2023-11-19T07:37:56;10.60;99.90
52643;DHT22;38531;53.296;6.614;2023-11-19T07:40:23;10.60;99.90
52643;DHT22;38531;53.296;6.614;2023-11-19T07:42:48;10.60;99.90
52643;DHT22;38531;53.296;6.614;2023-11-19T07:45:14;10.60;99.90
52643;DHT22;38531;53.296;6.614;2023-11-19T07:47:39;11.10;99.90
52643;DHT22;38531;53.296;6.614;2023-11-19T07:50:05;10.60;99.90
52643;DHT22;38531;53.296;6.614;2023-11-19T07:52:31;10.60;99.90
52643;DHT22;38531;53.296;6.614;2023-11-19T07:54:56;10.60;99.90
52643;DHT22;38531;53.296;6.614;2023-11-19T07:57:22;10.60;99.90
52643;DHT22;38531;53.296;6.614;2023-11-19T07:59:49;10.60;99.90
52643;DHT22;38531;53.296;6.614;2023-11-19T08:02:14;11.00;99.90
52643;DHT22;38531;53.296;6.614;2023-11-19T08:04:40;10.70;99.90
52643;DHT22;38531;53.296;6.614;2023-11-19T08:07:10;10.70;99.90
52643;DHT22;38531;53.296;6.614;2023-11-19T08:09:36;10.90;99.90
52643;DHT22;38531;53.296;6.614;2023-11-19T08:12:03;10.80;99.90
52643;DHT22;38531;53.296;6.614;2023-11-19T08:14:29;10.80;99.90
52643;DHT22;38531;53.296;6.614;2023-11-19T08:16:54;10.90;99.90
52643;DHT22;38531;53.296;6.614;2023-11-19T08:19:20;10.90;99.90
52643;DHT22;38531;53.296;6.614;2023-11-19T08:21:45;10.80;99.90
52643;DHT22;38531;53.296;6.614;2023-11-19T08:24:11;10.80;99.90
52643;DHT22;38531;53.296;6.614;2023-11-19T08:26:36;10.80;99.90
52643;DHT22;38531;53.296;6.614;2023-11-19T08:29:02;10.90;99.90
52643;DHT22;38531;53.296;6.614;2023-11-19T08:31:27;10.80;99.90
52643;DHT22;38531;53.296;6.614;2023-11-19T08:33:53;10.80;99.90
52643;DHT22;38531;53.296;6.614;2023-11-19T08:36:18;11.00;99.90
52643;DHT22;38531;53.296;6.614;2023-11-19T08:38:44;10.80;99.90
52643;DHT22;38531;53.296;6.614;2023-11-19T08:41:09;11.00;99.90
52643;DHT22;38531;53.296;6.614;2023-11-19T08:43:35;10.90;99.90
52643;DHT22;38531;53.296;6.614;2023-11-19T08:46:01;10.90;99.90
52643;DHT22;38531;53.296;6.614;2023-11-19T08:48:26;10.90;99.90
52643;DHT22;38531;53.296;6.614;2023-11-19T08:50:52;10.90;99.90
52643;DHT22;38531;53.296;6.614;2023-11-19T08:53:17;10.90;99.90
52643;DHT22;38531;53.296;6.614;2023-11-19T08:55:43;10.90;99.90
52643;DHT22;38531;53.296;6.614;2023-11-19T08:58:09;11.00;99.90
52643;DHT22;38531;53.296;6.614;2023-11-19T09:00:34;11.00;99.90
52643;DHT22;38531;53.296;6.614;2023-11-19T09:03:00;11.10;99.90
52643;DHT22;38531;53.296;6.614;2023-11-19T09:05:25;11.10;99.90
52643;DHT22;38531;53.296;6.614;2023-11-19T09:07:51;11.10;99.90
52643;DHT22;38531;53.296;6.614;2023-11-19T09:10:16;11.10;99.90
52643;DHT22;38531;53.296;6.614;2023-11-19T09:12:42;11.20;99.90
52643;DHT22;38531;53.296;6.614;2023-11-19T09:15:08;11.40;99.90
52643;DHT22;38531;53.296;6.614;2023-11-19T09:17:35;11.30;99.90
52643;DHT22;38531;53.296;6.614;2023-11-19T09:20:01;11.40;99.90
52643;DHT22;38531;53.296;6.614;2023-11-19T09:22:27;11.40;99.90
52643;DHT22;38531;53.296;6.614;2023-11-19T09:24:53;11.20;99.90
52643;DHT22;38531;53.296;6.614;2023-11-19T09:27:19;11.20;99.90
52643;DHT22;38531;53.296;6.614;2023-11-19T09:29:45;11.40;99.90
52643;DHT22;38531;53.296;6.614;2023-11-19T09:32:12;11.40;99.90
52643;DHT22;38531;53.296;6.614;2023-11-19T09:34:38;11.40;99.90
52643;DHT22;38531;53.296;6.614;2023-11-19T09:37:03;11.40;99.90
52643;DHT22;38531;53.296;6.614;2023-11-19T09:39:29;11.50;99.90
52643;DHT22;38531;53.296;6.614;2023-11-19T09:41:54;11.40;99.90
52643;DHT22;38531;53.296;6.614;2023-11-19T09:44:20;11.40;99.90
52643;DHT22;38531;53.296;6.614;2023-11-19T09:46:46;11.80;99.90
52643;DHT22;38531;53.296;6.614;2023-11-19T09:49:13;11.50;99.90
52643;DHT22;38531;53.296;6.614;2023-11-19T09:51:39;11.60;99.90
52643;DHT22;38531;53.296;6.614;2023-11-19T09:54:05;11.60;99.90
52643;DHT22;38531;53.296;6.614;2023-11-19T09:56:32;11.60;99.90
52643;DHT22;38531;53.296;6.614;2023-11-19T09:58:58;11.90;99.90
52643;DHT22;38531;53.296;6.614;2023-11-19T10:01:24;11.70;99.90
52643;DHT22;38531;53.296;6.614;2023-11-19T10:03:50;11.70;99.90
52643;DHT22;38531;53.296;6.614;2023-11-19T10:06:17;11.80;99.90
52643;DHT22;38531;53.296;6.614;2023-11-19T10:08:44;11.80;99.90
52643;DHT22;38531;53.296;6.614;2023-11-19T10:11:10;11.80;99.90
52643;DHT22;38531;53.296;6.614;2023-11-19T10:13:38;11.80;99.90
52643;DHT22;38531;53.296;6.614;2023-11-19T10:16:07;12.10;99.90
52643;DHT22;38531;53.296;6.614;2023-11-19T10:18:34;11.80;99.90
52643;DHT22;38531;53.296;6.614;2023-11-19T10:21:04;11.80;99.90
52643;DHT22;38531;53.296;6.614;2023-11-19T10:23:29;11.80;99.90
52643;DHT22;38531;53.296;6.614;2023-11-19T10:26:01;11.90;99.90
52643;DHT22;38531;53.296;6.614;2023-11-19T10:28:27;11.70;99.90
52643;DHT22;38531;53.296;6.614;2023-11-19T10:30:56;11.70;99.90
52643;DHT22;38531;53.296;6.614;2023-11-19T10:33:21;11.70;99.90
52643;DHT22;38531;53.296;6.614;2023-11-19T10:35:51;11.80;99.90
52643;DHT22;38531;53.296;6.614;2023-11-19T10:38:20;11.70;99.90
52643;DHT22;38531;53.296;6.614;2023-11-19T10:40:46;11.70;99.90
52643;DHT22;38531;53.296;6.614;2023-11-19T10:43:12;11.70;99.90
52643;DHT22;38531;53.296;6.614;2023-11-19T10:45:38;11.70;99.90
52643;DHT22;38531;53.296;6.614;2023-11-19T10:48:04;12.30;99.90
52643;DHT22;38531;53.296;6.614;2023-11-19T10:53:01;12.00;99.90
52643;DHT22;38531;53.296;6.614;2023-11-19T10:55:32;12.10;99.90
52643;DHT22;38531;53.296;6.614;2023-11-19T10:57:58;12.10;99.90
52643;DHT22;38531;53.296;6.614;2023-11-19T11:00:25;12.20;99.90
52643;DHT22;38531;53.296;6.614;2023-11-19T11:02:51;12.60;99.90
52643;DHT22;38531;53.296;6.614;2023-11-19T11:05:20;12.30;99.90
52643;DHT22;38531;53.296;6.614;2023-11-19T11:07:47;12.30;99.90
52643;DHT22;38531;53.296;6.614;2023-11-19T11:10:17;12.40;99.90
52643;DHT22;38531;53.296;6.614;2023-11-19T11:12:43;12.60;99.90
52643;DHT22;38531;53.296;6.614;2023-11-19T11:15:11;12.60;99.90
52643;DHT22;38531;53.296;6.614;2023-11-19T11:17:38;12.70;99.90
52643;DHT22;38531;53.296;6.614;2023-11-19T11:20:04;12.80;99.90
52643;DHT22;38531;53.296;6.614;2023-11-19T11:22:32;12.80;99.90
52643;DHT22;38531;53.296;6.614;2023-11-19T11:30:41;12.70;99.90
52643;DHT22;38531;53.296;6.614;2023-11-19T11:33:29;12.70;99.90
52643;DHT22;38531;53.296;6.614;2023-11-19T11:38:27;12.70;99.90
52643;DHT22;38531;53.296;6.614;2023-11-19T11:43:47;12.60;99.90
52643;DHT22;38531;53.296;6.614;2023-11-19T11:48:57;12.60;99.90
52643;DHT22;38531;53.296;6.614;2023-11-19T11:54:07;12.40;99.90
52643;DHT22;38531;53.296;6.614;2023-11-19T11:56:33;12.30;99.90
52643;DHT22;38531;53.296;6.614;2023-11-19T11:59:02;12.40;99.90
52643;DHT22;38531;53.296;6.614;2023-11-19T12:01:27;12.30;99.90
52643;DHT22;38531;53.296;6.614;2023-11-19T12:03:57;12.20;99.90
52643;DHT22;38531;53.296;6.614;2023-11-19T12:06:23;12.20;99.90
52643;DHT22;38531;53.296;6.614;2023-11-19T12:08:49;12.20;99.90
52643;DHT22;38531;53.296;6.614;2023-11-19T12:11:15;12.10;99.90
52643;DHT22;38531;53.296;6.614;2023-11-19T12:13:55;12.10;99.90
52643;DHT22;38531;53.296;6.614;2023-11-19T12:16:23;12.10;99.90
52643;DHT22;38531;53.296;6.614;2023-11-19T12:18:49;12.20;99.90
52643;DHT22;38531;53.296;6.614;2023-11-19T12:21:27;12.30;99.90
52643;DHT22;38531;53.296;6.614;2023-11-19T12:23:54;12.40;99.90
52643;DHT22;38531;53.296;6.614;2023-11-19T12:26:32;12.30;99.90
52643;DHT22;38531;53.296;6.614;2023-11-19T12:28:58;12.30;99.90
52643;DHT22;38531;53.296;6.614;2023-11-19T12:31:24;12.30;99.90
52643;DHT22;38531;53.296;6.614;2023-11-19T12:33:51;12.30;99.90
52643;DHT22;38531;53.296;6.614;2023-11-19T12:36:16;12.40;99.90
52643;DHT22;38531;53.296;6.614;2023-11-19T12:38:43;12.50;99.90
52643;DHT22;38531;53.296;6.614;2023-11-19T12:41:11;12.70;99.90
52643;DHT22;38531;53.296;6.614;2023-11-19T12:43:37;12.90;99.90
52643;DHT22;38531;53.296;6.614;2023-11-19T12:46:03;12.90;99.90
52643;DHT22;38531;53.296;6.614;2023-11-19T12:48:29;12.90;99.90
52643;DHT22;38531;53.296;6.614;2023-11-19T12:50:55;12.80;99.90
52643;DHT22;38531;53.296;6.614;2023-11-19T12:53:23;12.90;99.90
52643;DHT22;38531;53.296;6.614;2023-11-19T12:55:48;12.80;99.90
52643;DHT22;38531;53.296;6.614;2023-11-19T13:01:02;12.70;99.90
52643;DHT22;38531;53.296;6.614;2023-11-19T13:03:31;12.60;99.90
52643;DHT22;38531;53.296;6.614;2023-11-19T13:08:39;12.60;99.90
52643;DHT22;38531;53.296;6.614;2023-11-19T13:11:06;12.50;99.90
52643;DHT22;38531;53.296;6.614;2023-11-19T13:13:31;12.50;99.90
52643;DHT22;38531;53.296;6.614;2023-11-19T13:16:04;12.60;99.90
52643;DHT22;38531;53.296;6.614;2023-11-19T13:18:34;12.50;99.90
52643;DHT22;38531;53.296;6.614;2023-11-19T13:21:00;12.70;99.90
52643;DHT22;38531;53.296;6.614;2023-11-19T13:23:25;12.50;99.90
52643;DHT22;38531;53.296;6.614;2023-11-19T13:25:51;12.50;99.90
52643;DHT22;38531;53.296;6.614;2023-11-19T13:28:16;12.40;99.90
52643;DHT22;38531;53.296;6.614;2023-11-19T13:30:42;12.40;99.90
52643;DHT22;38531;53.296;6.614;2023-11-19T13:33:07;12.50;99.90
52643;DHT22;38531;53.296;6.614;2023-11-19T13:35:37;12.30;99.90
52643;DHT22;38531;53.296;6.614;2023-11-19T13:38:05;12.30;99.90
52643;DHT22;38531;53.296;6.614;2023-11-19T13:40:30;12.30;99.90
52643;DHT22;38531;53.296;6.614;2023-11-19T13:42:56;12.30;99.90
52643;DHT22;38531;53.296;6.614;2023-11-19T13:45:22;12.20;99.90
52643;DHT22;38531;53.296;6.614;2023-11-19T13:47:47;12.20;99.90
52643;DHT22;38531;53.296;6.614;2023-11-19T13:50:14;12.20;99.90
52643;DHT22;38531;53.296;6.614;2023-11-19T13:52:41;12.20;99.90
52643;DHT22;38531;53.296;6.614;2023-11-19T13:55:08;12.10;99.90
52643;DHT22;38531;53.296;6.614;2023-11-19T13:57:34;12.10;99.90
52643;DHT22;38531;53.296;6.614;2023-11-19T14:00:00;12.20;99.90
52643;DHT22;38531;53.296;6.614;2023-11-19T14:02:26;12.00;99.90
52643;DHT22;38531;53.296;6.614;2023-11-19T14:04:52;12.00;99.90
52643;DHT22;38531;53.296;6.614;2023-11-19T14:07:17;11.60;99.90
52643;DHT22;38531;53.296;6.614;2023-11-19T14:09:43;12.00;99.90
52643;DHT22;38531;53.296;6.614;2023-11-19T14:12:09;11.90;99.90
52643;DHT22;38531;53.296;6.614;2023-11-19T14:14:35;11.90;99.90
52643;DHT22;38531;53.296;6.614;2023-11-19T14:17:03;11.80;99.90
52643;DHT22;38531;53.296;6.614;2023-11-19T14:19:29;11.90;99.90
52643;DHT22;38531;53.296;6.614;2023-11-19T14:21:54;11.80;99.90
52643;DHT22;38531;53.296;6.614;2023-11-19T14:24:20;11.80;99.90
52643;DHT22;38531;53.296;6.614;2023-11-19T14:26:48;11.70;99.90
52643;DHT22;38531;53.296;6.614;2023-11-19T14:29:16;11.60;99.90
52643;DHT22;38531;53.296;6.614;2023-11-19T14:31:41;11.60;99.90
52643;DHT22;38531;53.296;6.614;2023-11-19T14:34:07;11.50;99.90
52643;DHT22;38531;53.296;6.614;2023-11-19T14:36:33;11.50;99.90
52643;DHT22;38531;53.296;6.614;2023-11-19T14:38:58;11.50;99.90
52643;DHT22;38531;53.296;6.614;2023-11-19T14:41:24;11.40;99.90
52643;DHT22;38531;53.296;6.614;2023-11-19T14:43:49;11.40;99.90
52643;DHT22;38531;53.296;6.614;2023-11-19T14:46:15;10.50;99.90
52643;DHT22;38531;53.296;6.614;2023-11-19T14:48:41;11.70;99.90
52643;DHT22;38531;53.296;6.614;2023-11-19T14:51:06;11.30;99.90
52643;DHT22;38531;53.296;6.614;2023-11-19T14:53:32;11.30;99.90
52643;DHT22;38531;53.296;6.614;2023-11-19T14:55:58;11.30;99.90
52643;DHT22;38531;53.296;6.614;2023-11-19T14:58:23;11.30;99.90
52643;DHT22;38531;53.296;6.614;2023-11-19T15:00:51;11.30;99.90
52643;DHT22;38531;53.296;6.614;2023-11-19T15:03:17;11.30;99.90
52643;DHT22;38531;53.296;6.614;2023-11-19T15:05:45;11.20;99.90
52643;DHT22;38531;53.296;6.614;2023-11-19T15:08:11;11.20;99.90
52643;DHT22;38531;53.296;6.614;2023-11-19T15:10:37;11.20;99.90
52643;DHT22;38531;53.296;6.614;2023-11-19T15:13:03;11.20;99.90
52643;DHT22;38531;53.296;6.614;2023-11-19T15:15:29;11.20;99.90
52643;DHT22;38531;53.296;6.614;2023-11-19T15:17:54;11.20;99.90
52643;DHT22;38531;53.296;6.614;2023-11-19T15:20:20;11.20;99.90
52643;DHT22;38531;53.296;6.614;2023-11-19T15:22:46;11.20;99.90
52643;DHT22;38531;53.296;6.614;2023-11-19T15:25:12;11.30;99.90
52643;DHT22;38531;53.296;6.614;2023-11-19T15:27:38;11.10;99.90
52643;DHT22;38531;53.296;6.614;2023-11-19T15:30:04;11.10;99.90
52643;DHT22;38531;53.296;6.614;2023-11-19T15:32:30;11.10;99.90
52643;DHT22;38531;53.296;6.614;2023-11-19T15:34:57;11.50;99.90
52643;DHT22;38531;53.296;6.614;2023-11-19T15:37:23;11.00;99.90
52643;DHT22;38531;53.296;6.614;2023-11-19T15:39:48;11.00;99.90
52643;DHT22;38531;53.296;6.614;2023-11-19T15:42:16;11.00;99.90
52643;DHT22;38531;53.296;6.614;2023-11-19T15:44:42;11.00;99.90
52643;DHT22;38531;53.296;6.614;2023-11-19T15:47:09;11.00;99.90
52643;DHT22;38531;53.296;6.614;2023-11-19T15:49:34;11.00;99.90